createdAt,value
2023-02-23T00:00:28.531Z,22.92
2023-02-23T00:02:07.350Z,22.27
2023-02-23T00:03:40.467Z,20.02
2023-02-23T00:05:13.386Z,23.60
2023-02-23T00:06:46.420Z,20.20
2023-02-23T00:08:18.426Z,22.48
2023-02-23T00:09:52.932Z,22.13
2023-02-23T00:11:27.075Z,19.80
2023-02-23T00:13:00.686Z,16.70
2023-02-23T00:14:32.734Z,18.33
2023-02-23T00:16:07.489Z,16.17
2023-02-23T00:17:41.873Z,17.90
2023-02-23T00:19:14.842Z,19.80
2023-02-23T00:20:57.511Z,30.00
2023-02-23T00:22:30.384Z,45.53
2023-02-23T00:24:06.221Z,77.97
2023-02-23T00:25:39.809Z,85.80
2023-02-23T00:27:17.868Z,68.38
2023-02-23T00:28:52.043Z,52.90
2023-02-23T00:30:25.128Z,50.00
2023-02-23T00:31:58.151Z,42.85
2023-02-23T00:33:31.598Z,34.05
2023-02-23T00:35:04.730Z,26.95
2023-02-23T00:36:38.802Z,28.20
2023-02-23T00:38:11.748Z,26.27
2023-02-23T00:39:45.847Z,24.83
2023-02-23T00:41:22.998Z,20.17
2023-02-23T00:42:55.873Z,20.88
2023-02-23T00:44:28.817Z,19.42
2023-02-23T00:46:05.452Z,19.50
2023-02-23T00:47:38.514Z,17.00
2023-02-23T00:49:14.095Z,18.15
2023-02-23T00:50:50.596Z,16.50
2023-02-23T00:52:23.576Z,16.23
2023-02-23T00:53:55.610Z,15.27
2023-02-23T00:55:28.605Z,16.45
2023-02-23T00:57:01.641Z,17.63
2023-02-23T00:58:33.622Z,15.23
2023-02-23T01:00:20.814Z,14.18
2023-02-23T01:01:52.941Z,18.17
2023-02-23T01:03:26.364Z,19.80
2023-02-23T01:06:34.765Z,16.10
2023-02-23T01:08:10.042Z,17.00
2023-02-23T01:09:43.713Z,18.73
2023-02-23T01:11:18.590Z,17.55
2023-02-23T01:12:53.486Z,17.95
2023-02-23T01:14:26.296Z,17.85
2023-02-23T01:15:59.556Z,16.15
2023-02-23T01:17:32.945Z,15.23
2023-02-23T01:20:42.474Z,16.00
2023-02-23T01:22:15.671Z,16.40
2023-02-23T01:23:48.025Z,16.67
2023-02-23T01:25:21.569Z,19.25
2023-02-23T01:26:54.974Z,16.95
2023-02-23T01:29:59.736Z,15.52
2023-02-23T01:31:32.913Z,19.75
2023-02-23T01:33:07.004Z,16.42
2023-02-23T01:34:39.032Z,16.00
2023-02-23T01:36:14.126Z,18.10
2023-02-23T01:37:47.154Z,15.85
2023-02-23T01:39:20.669Z,18.73
2023-02-23T01:40:53.704Z,19.77
2023-02-23T01:42:26.770Z,19.08
2023-02-23T01:44:00.167Z,17.27
2023-02-23T01:45:35.859Z,18.85
2023-02-23T01:47:08.649Z,19.77
2023-02-23T01:48:42.023Z,19.20
2023-02-23T01:53:29.125Z,17.23
2023-02-23T01:55:02.397Z,16.65
2023-02-23T01:56:43.434Z,17.30
2023-02-23T01:58:19.914Z,15.88
2023-02-23T01:59:52.653Z,18.60
2023-02-23T02:01:25.984Z,20.15
2023-02-23T02:04:38.261Z,22.10
2023-02-23T02:06:14.253Z,20.30
2023-02-23T02:07:58.423Z,31.17
2023-02-23T02:09:37.850Z,49.80
2023-02-23T02:11:26.041Z,44.30
2023-02-23T02:12:58.401Z,31.52
2023-02-23T02:14:33.336Z,21.88
2023-02-23T02:16:29.173Z,21.13
2023-02-23T02:18:10.016Z,18.48
2023-02-23T02:20:26.569Z,17.98
2023-02-23T02:22:39.327Z,18.90
2023-02-23T02:24:41.387Z,25.33
2023-02-23T02:26:22.832Z,27.50
2023-02-23T02:28:29.665Z,53.20
2023-02-23T02:30:29.795Z,99.72
2023-02-23T02:32:28.420Z,101.03
2023-02-23T02:34:42.628Z,81.63
2023-02-23T02:36:49.645Z,50.22
2023-02-23T02:38:32.615Z,45.60
2023-02-23T02:40:19.393Z,42.55
2023-02-23T02:42:02.598Z,33.20
2023-02-23T02:43:42.869Z,27.38
2023-02-23T02:45:23.250Z,27.70
2023-02-23T02:46:59.181Z,27.55
2023-02-23T02:48:38.629Z,21.85
2023-02-23T02:50:18.355Z,21.25
2023-02-23T02:51:59.725Z,23.77
2023-02-23T02:53:41.427Z,19.65
2023-02-23T02:55:17.761Z,23.05
2023-02-23T02:56:57.544Z,22.50
2023-02-23T02:58:30.771Z,21.80
2023-02-23T03:00:21.080Z,20.52
2023-02-23T03:02:11.774Z,21.75
2023-02-23T03:04:06.133Z,21.50
2023-02-23T03:08:01.132Z,25.15
2023-02-23T03:10:00.169Z,22.15
2023-02-23T03:11:57.247Z,21.38
2023-02-23T03:13:56.826Z,22.00
2023-02-23T03:15:56.542Z,21.98
2023-02-23T03:17:55.629Z,19.15
2023-02-23T03:19:50.733Z,21.30
2023-02-23T03:21:46.144Z,20.75
2023-02-23T03:23:43.019Z,18.95
2023-02-23T03:25:38.398Z,21.38
2023-02-23T03:27:39.035Z,19.77
2023-02-23T03:29:35.240Z,20.85
2023-02-23T03:31:33.425Z,18.35
2023-02-23T03:33:29.555Z,20.08
2023-02-23T03:35:25.952Z,21.00
2023-02-23T03:37:22.233Z,21.30
2023-02-23T03:39:20.635Z,20.60
2023-02-23T03:41:14.233Z,20.20
2023-02-23T03:43:07.461Z,20.05
2023-02-23T03:45:01.578Z,19.80
2023-02-23T03:46:54.787Z,19.88
2023-02-23T03:48:46.103Z,20.08
2023-02-23T03:50:41.507Z,20.98
2023-02-23T03:52:36.695Z,20.63
2023-02-23T03:54:32.088Z,21.38
2023-02-23T03:56:24.550Z,19.48
2023-02-23T03:58:18.140Z,22.10
2023-02-23T04:02:02.774Z,23.17
2023-02-23T04:03:57.682Z,24.05
2023-02-23T04:05:50.073Z,21.95
2023-02-23T04:07:41.100Z,23.67
2023-02-23T04:09:33.346Z,23.40
2023-02-23T04:11:33.917Z,23.15
2023-02-23T04:13:15.043Z,23.75
2023-02-23T04:14:56.158Z,23.52
2023-02-23T04:16:29.963Z,23.00
2023-02-23T04:18:05.067Z,23.20
2023-02-23T04:19:38.043Z,23.48
2023-02-23T04:21:11.004Z,23.55
2023-02-23T04:22:42.982Z,23.08
2023-02-23T04:24:17.228Z,24.27
2023-02-23T04:25:50.285Z,26.60
2023-02-23T04:27:23.205Z,27.25
2023-02-23T04:28:56.142Z,24.52
2023-02-23T04:30:29.499Z,24.77
2023-02-23T04:33:35.401Z,26.30
2023-02-23T04:35:08.149Z,23.08
2023-02-23T04:36:42.658Z,25.35
2023-02-23T04:38:15.590Z,23.80
2023-02-23T04:39:50.131Z,24.15
2023-02-23T04:41:23.192Z,26.88
2023-02-23T04:42:56.473Z,23.70
2023-02-23T04:44:29.383Z,25.92
2023-02-23T04:46:02.355Z,23.83
2023-02-23T04:47:34.292Z,27.55
2023-02-23T04:49:07.143Z,25.30
2023-02-23T04:50:40.062Z,25.13
2023-02-23T04:52:11.985Z,29.30
2023-02-23T04:53:45.112Z,27.00
2023-02-23T04:55:21.751Z,32.05
2023-02-23T04:56:54.697Z,26.50
2023-02-23T04:58:28.695Z,29.17
2023-02-23T05:00:01.755Z,28.02
2023-02-23T05:01:37.122Z,27.60
2023-02-23T05:03:10.716Z,29.48
2023-02-23T05:04:42.646Z,30.35
2023-02-23T05:06:15.666Z,27.33
2023-02-23T05:07:48.953Z,27.88
2023-02-23T05:09:20.886Z,27.35
2023-02-23T05:10:55.149Z,23.85
2023-02-23T05:12:27.090Z,28.30
2023-02-23T05:14:00.077Z,27.83
2023-02-23T05:15:33.031Z,26.73
2023-02-23T05:17:08.588Z,28.30
2023-02-23T05:18:41.674Z,29.67
2023-02-23T05:20:15.299Z,31.20
2023-02-23T05:21:50.371Z,30.40
2023-02-23T05:23:23.259Z,28.48
2023-02-23T05:24:57.509Z,28.77
2023-02-23T05:26:32.305Z,30.52
2023-02-23T05:28:05.488Z,28.35
2023-02-23T05:29:38.517Z,33.17
2023-02-23T05:31:12.242Z,27.77
2023-02-23T05:32:45.294Z,31.98
2023-02-23T05:34:18.214Z,30.40
2023-02-23T05:35:51.151Z,28.33
2023-02-23T05:37:24.081Z,30.13
2023-02-23T05:38:57.002Z,30.30
2023-02-23T05:40:30.218Z,32.63
2023-02-23T05:42:04.648Z,31.85
2023-02-23T05:43:36.936Z,30.73
2023-02-23T05:45:10.028Z,31.80
2023-02-23T05:46:42.965Z,31.52
2023-02-23T05:48:15.877Z,29.60
2023-02-23T05:49:48.702Z,30.42
2023-02-23T05:51:21.850Z,33.70
2023-02-23T05:52:54.854Z,32.67
2023-02-23T05:54:27.807Z,51.30
2023-02-23T05:56:00.729Z,33.92
2023-02-23T05:57:35.107Z,36.30
2023-02-23T05:59:08.422Z,33.47
2023-02-23T06:02:14.182Z,46.33
2023-02-23T06:03:47.474Z,36.75
2023-02-23T06:05:20.407Z,32.95
2023-02-23T06:06:53.315Z,36.65
2023-02-23T06:08:26.855Z,33.15
2023-02-23T06:09:59.923Z,33.72
2023-02-23T06:11:32.814Z,32.95
2023-02-23T06:13:07.210Z,36.60
2023-02-23T06:14:40.114Z,33.60
2023-02-23T06:16:13.163Z,34.03
2023-02-23T06:17:46.173Z,34.15
2023-02-23T06:19:19.198Z,31.80
2023-02-23T06:20:52.127Z,33.25
2023-02-23T06:22:25.116Z,65.97
2023-02-23T06:24:00.627Z,70.40
2023-02-23T06:25:33.536Z,44.45
2023-02-23T06:27:07.200Z,106.53
2023-02-23T06:28:41.668Z,79.63
2023-02-23T06:30:15.498Z,47.78
2023-02-23T06:31:48.550Z,66.90
2023-02-23T06:33:21.654Z,34.75
2023-02-23T06:34:54.563Z,49.90
2023-02-23T06:36:30.205Z,37.67
2023-02-23T06:38:03.653Z,32.50
2023-02-23T06:39:36.574Z,39.10
2023-02-23T06:41:10.288Z,34.88
2023-02-23T06:42:43.189Z,36.78
2023-02-23T06:44:17.646Z,36.33
2023-02-23T06:45:50.889Z,34.35
2023-02-23T06:47:23.834Z,31.67
2023-02-23T06:48:57.282Z,33.28
2023-02-23T06:50:30.180Z,38.53
2023-02-23T06:52:03.179Z,38.85
2023-02-23T06:53:36.240Z,42.60
2023-02-23T06:55:10.680Z,35.50
2023-02-23T06:56:43.546Z,33.08
2023-02-23T06:58:16.441Z,33.85
2023-02-23T06:59:50.901Z,33.78
2023-02-23T07:01:24.183Z,35.15
2023-02-23T07:04:30.849Z,35.88
2023-02-23T07:06:05.752Z,36.90
2023-02-23T07:07:38.849Z,37.20
2023-02-23T07:10:45.059Z,39.22
2023-02-23T07:12:18.062Z,34.08
2023-02-23T07:13:50.986Z,33.15
2023-02-23T07:15:25.183Z,36.00
2023-02-23T07:16:58.216Z,33.30
2023-02-23T07:18:31.159Z,34.10
2023-02-23T07:20:04.701Z,35.45
2023-02-23T07:21:37.654Z,32.38
2023-02-23T07:23:10.597Z,36.95
2023-02-23T07:24:43.556Z,34.97
2023-02-23T07:26:17.051Z,34.88
2023-02-23T07:27:51.137Z,39.40
2023-02-23T07:29:24.969Z,35.42
2023-02-23T07:31:08.276Z,36.03
2023-02-23T07:32:41.283Z,30.50
2023-02-23T07:34:14.176Z,35.42
2023-02-23T07:35:47.043Z,35.30
2023-02-23T07:37:19.979Z,37.03
2023-02-23T07:38:52.833Z,39.50
2023-02-23T07:40:26.547Z,34.78
2023-02-23T07:41:59.522Z,34.50
2023-02-23T07:43:32.484Z,36.80
2023-02-23T07:45:06.557Z,37.25
2023-02-23T07:46:41.821Z,34.22
2023-02-23T07:48:14.927Z,36.70
2023-02-23T07:49:48.326Z,38.60
2023-02-23T07:52:54.494Z,36.15
2023-02-23T07:54:27.386Z,38.20
2023-02-23T07:56:00.797Z,39.67
2023-02-23T07:59:06.400Z,37.67
2023-02-23T08:00:40.080Z,37.10
2023-02-23T08:02:16.391Z,40.85
2023-02-23T08:03:50.376Z,37.42
2023-02-23T08:05:25.462Z,37.47
2023-02-23T08:06:59.317Z,37.55
2023-02-23T08:08:32.518Z,40.83
2023-02-23T08:10:06.249Z,39.72
2023-02-23T08:11:39.465Z,34.95
2023-02-23T08:13:12.314Z,42.08
2023-02-23T08:14:45.486Z,41.40
2023-02-23T08:16:18.470Z,33.20
2023-02-23T08:17:52.809Z,37.85
2023-02-23T08:19:25.718Z,38.70
2023-02-23T08:21:02.209Z,35.38
2023-02-23T08:22:48.529Z,34.70
2023-02-23T08:24:22.457Z,35.60
2023-02-23T08:25:55.528Z,40.15
2023-02-23T08:27:28.429Z,36.67
2023-02-23T08:29:01.352Z,35.58
2023-02-23T08:30:35.217Z,36.70
2023-02-23T08:32:08.317Z,37.97
2023-02-23T08:33:42.987Z,35.22
2023-02-23T08:35:16.283Z,37.38
2023-02-23T08:38:22.575Z,39.88
2023-02-23T08:39:55.536Z,35.72
2023-02-23T08:41:28.972Z,32.47
2023-02-23T08:43:01.891Z,33.85
2023-02-23T08:44:34.745Z,35.95
2023-02-23T08:46:08.403Z,34.65
2023-02-23T08:47:41.461Z,32.80
2023-02-23T08:49:15.733Z,35.75
2023-02-23T08:50:49.801Z,36.78
2023-02-23T08:52:23.401Z,35.15
2023-02-23T08:53:57.071Z,36.60
2023-02-23T08:55:30.036Z,35.40
2023-02-23T08:57:02.990Z,36.17
2023-02-23T08:58:37.009Z,40.70
2023-02-23T09:00:14.234Z,43.42
2023-02-23T09:01:47.310Z,44.33
2023-02-23T09:03:20.371Z,51.65
2023-02-23T09:04:54.943Z,47.25
2023-02-23T09:06:28.975Z,50.38
2023-02-23T09:08:01.890Z,48.83
2023-02-23T09:09:35.125Z,44.92
2023-02-23T09:11:08.198Z,45.25
2023-02-23T09:12:41.141Z,38.75
2023-02-23T09:14:14.092Z,44.08
2023-02-23T09:15:47.820Z,43.83
2023-02-23T09:17:20.933Z,43.17
2023-02-23T09:18:53.970Z,40.10
2023-02-23T09:20:28.183Z,45.28
2023-02-23T09:22:01.116Z,38.03
2023-02-23T09:23:34.305Z,38.50
2023-02-23T09:25:08.579Z,40.00
2023-02-23T09:26:43.526Z,39.72
2023-02-23T09:28:20.234Z,38.03
2023-02-23T09:29:53.134Z,41.60
2023-02-23T09:31:26.087Z,39.50
2023-02-23T09:32:59.020Z,41.95
2023-02-23T09:34:31.989Z,39.63
2023-02-23T09:36:12.845Z,41.42
2023-02-23T09:37:47.231Z,46.47
2023-02-23T09:39:29.140Z,45.17
2023-02-23T09:41:19.045Z,43.20
2023-02-23T09:43:02.035Z,44.25
2023-02-23T09:44:57.142Z,50.22
2023-02-23T09:46:39.260Z,43.85
2023-02-23T09:48:18.634Z,47.55
2023-02-23T09:49:53.090Z,43.97
2023-02-23T09:51:29.465Z,40.33
2023-02-23T09:53:06.619Z,41.47
2023-02-23T09:54:39.730Z,38.88
2023-02-23T09:56:17.709Z,42.53
2023-02-23T09:57:52.078Z,40.72
2023-02-23T09:59:26.144Z,43.35
2023-02-23T10:01:22.671Z,40.92
2023-02-23T10:03:18.493Z,38.70
2023-02-23T10:04:55.606Z,41.42
2023-02-23T10:06:31.918Z,37.67
2023-02-23T10:08:08.982Z,41.55
2023-02-23T10:10:03.770Z,39.65
2023-02-23T10:11:42.043Z,40.83
2023-02-23T10:13:22.845Z,36.92
2023-02-23T10:15:19.924Z,40.70
2023-02-23T10:17:09.978Z,41.38
2023-02-23T10:18:50.122Z,37.60
2023-02-23T10:20:30.311Z,40.13
2023-02-23T10:22:08.368Z,40.10
2023-02-23T10:23:46.511Z,36.85
2023-02-23T10:25:24.853Z,39.30
2023-02-23T10:27:01.417Z,37.20
2023-02-23T10:28:36.525Z,40.63
2023-02-23T10:30:19.423Z,42.13
2023-02-23T10:31:57.147Z,36.20
2023-02-23T10:33:35.663Z,42.40
2023-02-23T10:35:13.328Z,41.67
2023-02-23T10:36:52.844Z,38.90
2023-02-23T10:38:27.579Z,38.33
2023-02-23T10:40:00.558Z,43.08
2023-02-23T10:41:33.759Z,40.15
2023-02-23T10:43:06.833Z,39.28
2023-02-23T10:44:39.851Z,40.00
2023-02-23T10:46:22.363Z,43.33
2023-02-23T10:47:59.149Z,39.10
2023-02-23T10:49:39.953Z,40.00
2023-02-23T10:51:19.973Z,41.80
2023-02-23T10:52:56.459Z,37.35
2023-02-23T10:54:44.650Z,41.97
2023-02-23T10:56:20.095Z,41.92
2023-02-23T10:58:03.241Z,35.70
2023-02-23T10:59:36.675Z,36.15
2023-02-23T11:01:10.480Z,34.95
2023-02-23T11:02:45.211Z,39.80
2023-02-23T11:04:24.072Z,39.50
2023-02-23T11:05:57.462Z,35.65
2023-02-23T11:09:33.122Z,35.58
2023-02-23T11:11:28.704Z,35.05
2023-02-23T11:13:01.791Z,32.95
2023-02-23T11:14:34.793Z,39.03
2023-02-23T11:16:13.192Z,38.45
2023-02-23T11:17:46.668Z,34.55
2023-02-23T11:20:56.442Z,32.80
2023-02-23T11:22:34.016Z,36.00
2023-02-23T11:24:19.487Z,35.90
2023-02-23T11:25:55.852Z,39.35
2023-02-23T11:27:30.539Z,34.45
2023-02-23T11:29:10.999Z,31.48
2023-02-23T11:30:44.565Z,28.27
2023-02-23T11:32:21.008Z,29.92
2023-02-23T11:33:55.848Z,30.00
2023-02-23T11:35:31.954Z,30.75
2023-02-23T11:37:07.782Z,29.63
2023-02-23T11:38:40.792Z,31.45
2023-02-23T11:40:22.173Z,32.90
2023-02-23T11:42:17.799Z,32.65
2023-02-23T11:43:54.769Z,31.48
2023-02-23T11:45:33.514Z,30.15
2023-02-23T11:47:06.540Z,33.05
2023-02-23T11:48:49.423Z,30.08
2023-02-23T11:50:29.377Z,29.73
2023-02-23T11:52:02.557Z,30.17
2023-02-23T11:53:40.087Z,33.38
2023-02-23T11:55:18.875Z,30.70
2023-02-23T11:56:55.177Z,31.77
2023-02-23T11:58:36.171Z,39.08
2023-02-23T12:00:15.096Z,39.95
2023-02-23T12:01:51.462Z,40.72
2023-02-23T12:03:26.051Z,45.22
2023-02-23T12:05:10.379Z,42.17
2023-02-23T12:06:43.699Z,39.38
2023-02-23T12:09:58.828Z,34.35
2023-02-23T12:11:35.850Z,29.65
2023-02-23T12:13:27.578Z,30.25
2023-02-23T12:15:09.510Z,30.35
2023-02-23T12:16:48.200Z,30.50
2023-02-23T12:18:38.682Z,29.17
2023-02-23T12:20:18.829Z,30.40
2023-02-23T12:22:01.710Z,28.27
2023-02-23T12:23:37.976Z,25.50
2023-02-23T12:25:23.026Z,29.02
2023-02-23T12:26:59.459Z,27.52
2023-02-23T12:28:38.167Z,27.00
2023-02-23T12:30:18.417Z,28.80
2023-02-23T12:31:57.809Z,25.25
2023-02-23T12:33:38.329Z,30.33
2023-02-23T12:35:17.734Z,29.38
2023-02-23T12:36:57.466Z,28.67
2023-02-23T12:38:40.300Z,26.75
2023-02-23T12:40:18.600Z,26.45
2023-02-23T12:41:58.657Z,26.95
2023-02-23T12:43:38.763Z,29.10
2023-02-23T12:45:21.829Z,24.75
2023-02-23T12:47:00.670Z,26.42
2023-02-23T12:48:41.094Z,26.80
2023-02-23T12:50:24.201Z,24.73
2023-02-23T12:52:06.709Z,22.60
2023-02-23T12:53:42.535Z,25.02
2023-02-23T12:55:16.692Z,21.77
2023-02-23T12:56:58.514Z,21.40
2023-02-23T12:58:41.263Z,29.08
2023-02-23T13:00:39.264Z,25.88
2023-02-23T13:02:19.826Z,23.27
2023-02-23T13:04:11.487Z,23.23
2023-02-23T13:05:50.246Z,21.35
2023-02-23T13:07:34.418Z,25.80
2023-02-23T13:09:23.328Z,23.55
2023-02-23T13:11:06.192Z,23.48
2023-02-23T13:12:49.480Z,25.25
2023-02-23T13:14:31.498Z,25.33
2023-02-23T13:16:13.111Z,24.75
2023-02-23T13:17:53.221Z,22.90
2023-02-23T13:19:34.319Z,21.10
2023-02-23T13:21:15.052Z,25.27
2023-02-23T13:22:52.856Z,23.27
2023-02-23T13:24:32.508Z,20.17
2023-02-23T13:26:16.277Z,21.20
2023-02-23T13:29:32.733Z,16.05
2023-02-23T13:31:06.242Z,16.75
2023-02-23T13:32:40.005Z,17.75
2023-02-23T13:34:22.404Z,18.20
2023-02-23T13:35:56.205Z,19.00
2023-02-23T13:37:32.202Z,20.67
2023-02-23T13:39:28.855Z,19.30
2023-02-23T13:41:10.770Z,20.30
2023-02-23T13:42:56.505Z,19.55
2023-02-23T13:44:34.753Z,19.63
2023-02-23T13:46:21.758Z,18.48
2023-02-23T13:47:59.610Z,18.55
2023-02-23T13:49:39.542Z,19.90
2023-02-23T13:51:21.232Z,22.13
2023-02-23T13:52:58.693Z,24.38
2023-02-23T13:54:34.343Z,20.30
2023-02-23T13:56:10.080Z,20.60
2023-02-23T13:57:46.224Z,20.25
2023-02-23T13:59:22.022Z,22.35
2023-02-23T14:01:05.944Z,18.25
2023-02-23T14:02:41.454Z,18.55
2023-02-23T14:04:17.148Z,18.63
2023-02-23T14:05:57.586Z,18.75
2023-02-23T14:07:32.996Z,24.27
2023-02-23T14:09:11.797Z,21.88
2023-02-23T14:10:45.920Z,27.95
2023-02-23T14:12:25.822Z,18.85
2023-02-23T14:14:00.851Z,18.50
2023-02-23T14:15:47.504Z,18.63
2023-02-23T14:17:56.424Z,17.33
2023-02-23T14:19:36.441Z,19.58
2023-02-23T14:21:25.713Z,23.15
2023-02-23T14:23:27.491Z,19.30
2023-02-23T14:25:43.366Z,20.48
2023-02-23T14:27:40.431Z,17.50
2023-02-23T14:29:29.774Z,23.42
2023-02-23T14:31:05.062Z,22.42
2023-02-23T14:32:41.375Z,18.50
2023-02-23T14:34:22.847Z,23.27
2023-02-23T14:35:56.093Z,22.23
2023-02-23T14:37:33.368Z,25.80
2023-02-23T14:39:10.810Z,25.58
2023-02-23T14:40:48.874Z,26.83
2023-02-23T14:42:24.947Z,23.17
2023-02-23T14:44:03.951Z,21.95
2023-02-23T14:45:39.810Z,22.27
2023-02-23T14:47:16.709Z,24.33
2023-02-23T14:49:03.316Z,23.98
2023-02-23T14:50:39.063Z,24.92
2023-02-23T14:52:20.844Z,23.38
2023-02-23T14:53:59.007Z,23.10
2023-02-23T14:55:35.287Z,23.17
2023-02-23T14:57:20.668Z,23.55
2023-02-23T14:58:54.976Z,25.27
2023-02-23T15:00:32.371Z,25.38
2023-02-23T15:02:11.177Z,27.98
2023-02-23T15:03:44.052Z,29.35
2023-02-23T15:05:17.746Z,23.85
2023-02-23T15:06:54.052Z,25.05
2023-02-23T15:08:28.713Z,24.23
2023-02-23T15:10:10.555Z,24.73
2023-02-23T15:11:45.709Z,26.30
2023-02-23T15:13:30.730Z,24.13
2023-02-23T15:15:06.573Z,24.75
2023-02-23T15:16:40.556Z,23.80
2023-02-23T15:18:23.217Z,23.80
2023-02-23T15:20:14.332Z,23.00
2023-02-23T15:21:53.868Z,21.88
2023-02-23T15:23:26.897Z,24.40
2023-02-23T15:25:03.286Z,24.60
2023-02-23T15:26:38.825Z,23.08
2023-02-23T15:28:24.782Z,25.35
2023-02-23T15:29:57.829Z,22.25
2023-02-23T15:31:31.383Z,26.77
2023-02-23T15:33:05.935Z,23.55
2023-02-23T15:34:39.095Z,24.75
2023-02-23T15:36:19.512Z,25.20
2023-02-23T15:38:01.389Z,26.00
2023-02-23T15:39:53.358Z,25.48
2023-02-23T15:41:32.314Z,26.27
2023-02-23T15:43:05.360Z,25.80
2023-02-23T15:44:44.648Z,24.98
2023-02-23T15:46:24.996Z,24.35
2023-02-23T15:48:00.348Z,25.15
2023-02-23T15:49:38.100Z,27.05
2023-02-23T15:51:23.514Z,31.77
2023-02-23T15:53:01.516Z,25.45
2023-02-23T15:54:37.938Z,29.13
2023-02-23T15:56:16.044Z,25.48
2023-02-23T15:57:54.950Z,31.20
2023-02-23T15:59:30.939Z,29.88
2023-02-23T16:01:12.972Z,26.15
2023-02-23T16:02:47.358Z,27.25
2023-02-23T16:04:26.859Z,26.00
2023-02-23T16:06:05.345Z,28.85
2023-02-23T16:07:43.437Z,28.10
2023-02-23T16:09:25.048Z,27.67
2023-02-23T16:11:08.582Z,25.38
2023-02-23T16:12:44.734Z,29.58
2023-02-23T16:14:20.635Z,27.85
2023-02-23T16:15:56.099Z,26.88
2023-02-23T16:17:31.341Z,25.90
2023-02-23T16:19:05.113Z,26.58
2023-02-23T16:20:41.730Z,23.60
2023-02-23T16:22:22.823Z,23.77
2023-02-23T16:23:58.382Z,23.85
2023-02-23T16:25:33.396Z,24.50
2023-02-23T16:27:06.630Z,25.10
2023-02-23T16:30:23.564Z,20.77
2023-02-23T16:32:00.457Z,22.70
2023-02-23T16:33:43.023Z,23.77
2023-02-23T16:35:18.377Z,21.55
2023-02-23T16:36:56.561Z,21.85
2023-02-23T16:38:36.210Z,21.60
2023-02-23T16:40:13.670Z,21.55
2023-02-23T16:41:56.718Z,21.33
2023-02-23T16:43:31.653Z,23.80
2023-02-23T16:45:06.117Z,20.55
2023-02-23T16:47:25.031Z,22.23
2023-02-23T16:49:10.124Z,21.92
2023-02-23T16:50:45.361Z,23.80
2023-02-23T16:52:20.235Z,23.23
2023-02-23T16:53:53.659Z,18.05
2023-02-23T16:55:28.884Z,19.75
2023-02-23T16:57:01.857Z,20.92
2023-02-23T16:58:36.110Z,19.13
2023-02-23T17:00:17.977Z,19.63
2023-02-23T17:01:52.315Z,19.85
2023-02-23T17:03:27.048Z,18.80
2023-02-23T17:04:59.949Z,20.55
2023-02-23T17:06:32.902Z,18.95
2023-02-23T17:08:06.498Z,18.05
2023-02-23T17:09:39.504Z,18.40
2023-02-23T17:11:12.794Z,19.42
2023-02-23T17:14:27.346Z,17.25
2023-02-23T17:16:03.145Z,20.63
2023-02-23T17:17:40.852Z,17.63
2023-02-23T17:19:15.890Z,18.00
2023-02-23T17:20:51.217Z,21.75
2023-02-23T17:22:24.465Z,20.48
2023-02-23T17:24:02.819Z,20.08
2023-02-23T17:25:36.199Z,18.00
2023-02-23T17:28:42.368Z,17.63
2023-02-23T17:30:15.302Z,18.58
2023-02-23T17:31:48.558Z,14.15
2023-02-23T17:34:57.715Z,17.33
2023-02-23T17:36:30.607Z,17.67
2023-02-23T17:38:04.047Z,19.33
2023-02-23T17:41:14.037Z,19.27
2023-02-23T17:42:46.936Z,19.85
2023-02-23T17:44:19.880Z,18.75
2023-02-23T17:45:54.921Z,19.50
2023-02-23T17:47:26.930Z,19.10
2023-02-23T17:49:01.140Z,18.48
2023-02-23T17:50:34.255Z,18.73
2023-02-23T17:52:07.302Z,17.70
2023-02-23T17:53:41.339Z,19.08
2023-02-23T17:55:14.306Z,20.92
2023-02-23T17:56:47.259Z,22.08
2023-02-23T17:58:20.799Z,21.23
2023-02-23T17:59:53.878Z,20.02
2023-02-23T18:01:27.069Z,21.23
2023-02-23T18:03:00.004Z,20.38
2023-02-23T18:04:34.288Z,17.45
2023-02-23T18:06:09.106Z,22.05
2023-02-23T18:07:42.022Z,20.48
2023-02-23T18:09:15.150Z,21.17
2023-02-23T18:10:52.483Z,21.30
2023-02-23T18:12:25.492Z,23.15
2023-02-23T18:14:04.302Z,19.88
2023-02-23T18:15:37.146Z,20.00
2023-02-23T18:17:12.997Z,22.83
2023-02-23T18:18:48.681Z,20.35
2023-02-23T18:20:23.681Z,22.23
2023-02-23T18:21:56.584Z,22.85
2023-02-23T18:23:32.525Z,22.48
2023-02-23T18:25:06.492Z,22.60
2023-02-23T18:26:43.587Z,20.23
2023-02-23T18:28:17.037Z,21.05
2023-02-23T18:29:49.916Z,21.27
2023-02-23T18:31:28.243Z,23.35
2023-02-23T18:33:06.869Z,23.30
2023-02-23T18:34:44.278Z,23.50
2023-02-23T18:36:25.987Z,24.45
2023-02-23T18:38:00.696Z,23.48
2023-02-23T18:39:36.614Z,21.88
2023-02-23T18:41:10.929Z,24.30
2023-02-23T18:42:45.815Z,25.88
2023-02-23T18:44:21.847Z,24.20
2023-02-23T18:45:55.871Z,25.77
2023-02-23T18:47:29.819Z,26.80
2023-02-23T18:49:04.660Z,25.23
2023-02-23T18:50:38.087Z,24.88
2023-02-23T18:52:14.512Z,23.02
2023-02-23T18:53:47.654Z,23.92
2023-02-23T18:55:22.129Z,23.92
2023-02-23T18:56:55.868Z,25.85
2023-02-23T18:58:31.051Z,23.05
2023-02-23T19:00:13.337Z,23.70
2023-02-23T19:01:50.873Z,26.13
2023-02-23T19:03:23.900Z,25.02
2023-02-23T19:05:03.047Z,26.15
2023-02-23T19:06:43.881Z,25.80
2023-02-23T19:08:21.541Z,23.58
2023-02-23T19:10:00.684Z,28.13
2023-02-23T19:11:35.645Z,26.67
2023-02-23T19:13:10.462Z,23.60
2023-02-23T19:14:49.580Z,29.60
2023-02-23T19:16:24.124Z,25.65
2023-02-23T19:17:57.038Z,28.17
2023-02-23T19:19:29.935Z,26.98
2023-02-23T19:21:03.140Z,27.17
2023-02-23T19:22:36.615Z,27.48
2023-02-23T19:24:14.112Z,28.00
2023-02-23T19:25:48.776Z,31.50
2023-02-23T19:27:24.354Z,30.23
2023-02-23T19:28:58.210Z,29.33
2023-02-23T19:30:33.175Z,32.10
2023-02-23T19:32:06.609Z,28.08
2023-02-23T19:33:39.722Z,30.40
2023-02-23T19:35:15.688Z,30.60
2023-02-23T19:36:49.163Z,31.50
2023-02-23T19:38:24.804Z,35.05
2023-02-23T19:39:59.448Z,35.05
2023-02-23T19:41:34.801Z,31.67
2023-02-23T19:43:08.184Z,30.35
